Time;durP1;ratioP1;P1;durP2;ratioP2;P2;SDS_P1;SDS_P2;PMS_P1;PMS_P2;Temp;Humidity;BMP_temperature;BMP_pressure;BME280_temperature;BME280_humidity;BME280_pressure;Samples;Min_cycle;Max_cycle;Signal;HPM_P1;HPM_P2
2023/03/31 00:01:18;;;;;;;5.47;1.00;;;13.50;99.90;;;;;;4995202;28;20030;-87
2023/03/31 00:03:44;;;;;;;4.13;1.00;;;13.50;99.90;;;;;;4999899;28;20025;-88
2023/03/31 00:06:16;;;;;;;3.70;1.00;;;13.50;99.90;;;;;;5002199;28;20032;-88
2023/03/31 00:08:42;;;;;;;3.93;0.97;;;13.50;99.90;;;;;;5007910;28;20561;-89
2023/03/31 00:11:08;;;;;;;3.20;0.90;;;13.60;99.90;;;;;;5015583;28;20047;-88
2023/03/31 00:13:35;;;;;;;3.58;1.00;;;13.50;99.90;;;;;;4993814;28;20267;-88
2023/03/31 00:16:10;;;;;;;3.38;1.10;;;13.60;99.90;;;;;;4991732;28;20021;-88
2023/03/31 00:18:36;;;;;;;1.67;0.80;;;13.60;99.90;;;;;;5012689;28;20033;-88
2023/03/31 00:21:06;;;;;;;2.97;1.00;;;13.50;99.90;;;;;;5009034;28;20044;-87
2023/03/31 00:23:31;;;;;;;4.05;1.02;;;13.60;99.90;;;;;;4983798;28;20523;-88
2023/03/31 00:25:57;;;;;;;4.17;1.20;;;13.60;99.90;;;;;;5004767;28;20036;-88
2023/03/31 00:28:23;;;;;;;4.35;1.20;;;13.60;99.90;;;;;;5007699;28;20056;-88
2023/03/31 00:30:49;;;;;;;4.00;1.10;;;13.60;99.90;;;;;;5016560;28;20025;-88
2023/03/31 00:33:14;;;;;;;4.22;1.30;;;13.50;99.90;;;;;;5008824;28;20109;-87
2023/03/31 00:35:40;;;;;;;5.38;1.17;;;13.50;99.90;;;;;;4997480;28;20249;-88
2023/03/31 00:38:12;;;;;;;4.67;1.27;;;13.50;99.90;;;;;;4985068;28;20032;-87
2023/03/31 00:40:44;;;;;;;3.47;0.90;;;13.50;99.90;;;;;;5017589;28;20088;-86
2023/03/31 00:43:28;;;;;;;4.30;1.15;;;13.50;99.90;;;;;;5011716;28;20052;-86
2023/03/31 00:46:20;;;;;;;5.15;1.23;;;13.60;99.90;;;;;;5010899;28;20083;-90
2023/03/31 00:48:58;;;;;;;4.27;1.10;;;13.60;99.90;;;;;;5004792;28;20242;-88
2023/03/31 00:51:30;;;;;;;4.57;1.13;;;13.60;99.90;;;;;;5008870;28;20030;-91
2023/03/31 00:54:00;;;;;;;6.43;1.40;;;13.60;99.90;;;;;;5002080;28;20029;-87
2023/03/31 00:56:33;;;;;;;4.72;1.20;;;13.60;99.90;;;;;;4997947;28;20294;-87
2023/03/31 00:59:01;;;;;;;3.22;0.93;;;13.60;99.90;;;;;;5016347;28;20672;-87
2023/03/31 01:01:29;;;;;;;4.40;1.00;;;13.60;99.90;;;;;;5009964;28;20271;-87
2023/03/31 01:03:56;;;;;;;4.03;1.20;;;13.60;99.90;;;;;;4984403;28;20609;-86
2023/03/31 01:06:24;;;;;;;5.28;1.08;;;13.50;99.90;;;;;;5018522;28;20032;-87
2023/03/31 01:08:51;;;;;;;4.85;1.00;;;13.50;99.90;;;;;;5002105;28;20041;-87
2023/03/31 01:11:22;;;;;;;4.05;1.20;;;13.50;99.90;;;;;;5001945;28;20052;-88
2023/03/31 01:13:51;;;;;;;4.57;1.23;;;13.50;99.90;;;;;;5004218;28;20522;-87
2023/03/31 01:16:17;;;;;;;5.28;1.10;;;13.40;99.90;;;;;;5014320;28;20025;-87
2023/03/31 01:18:45;;;;;;;4.45;1.00;;;13.40;99.90;;;;;;4991714;28;20756;-88
2023/03/31 01:21:34;;;;;;;2.20;1.00;;;13.40;99.90;;;;;;5011929;28;20316;-87
2023/03/31 01:24:12;;;;;;;3.58;0.93;;;13.40;99.90;;;;;;4964447;28;20379;-90
2023/03/31 01:27:02;;;;;;;7.20;1.37;;;13.40;99.90;;;;;;4982075;28;20157;-87
2023/03/31 01:29:52;;;;;;;3.80;0.98;;;13.40;99.90;;;;;;4988111;28;20560;-93
2023/03/31 01:32:37;;;;;;;4.38;1.10;;;13.40;99.90;;;;;;5004470;28;20060;-87
2023/03/31 01:35:38;;;;;;;2.92;0.75;;;13.30;99.90;;;;;;4992489;28;20418;-86
2023/03/31 01:38:20;;;;;;;3.08;1.10;;;13.30;99.90;;;;;;5002681;28;20029;-87
2023/03/31 01:40:54;;;;;;;5.03;1.07;;;13.30;99.90;;;;;;5011752;28;20234;-87
2023/03/31 01:43:41;;;;;;;4.13;1.30;;;13.30;99.90;;;;;;4987350;28;20068;-86
2023/03/31 01:46:27;;;;;;;2.78;1.10;;;13.30;99.90;;;;;;5004260;28;20364;-87
2023/03/31 01:49:14;;;;;;;1.92;0.70;;;13.30;99.90;;;;;;5012311;28;20044;-88
2023/03/31 01:51:59;;;;;;;2.78;0.80;;;13.30;99.90;;;;;;4997863;28;20195;-89
2023/03/31 01:54:30;;;;;;;2.87;0.87;;;13.30;99.90;;;;;;5021412;28;20033;-88
2023/03/31 01:57:04;;;;;;;3.97;0.90;;;13.20;99.90;;;;;;4994417;28;20104;-88
2023/03/31 01:59:40;;;;;;;2.88;0.90;;;13.20;99.90;;;;;;4984109;28;20025;-87
2023/03/31 02:02:20;;;;;;;2.92;0.80;;;13.20;99.90;;;;;;4993044;28;20045;-89
2023/03/31 02:04:51;;;;;;;1.98;0.80;;;13.20;99.90;;;;;;5028208;28;20065;-89
2023/03/31 02:07:29;;;;;;;2.47;0.60;;;13.20;99.90;;;;;;5021522;28;20075;-88
2023/03/31 02:09:59;;;;;;;2.97;0.80;;;13.20;99.90;;;;;;5005764;28;20083;-87
2023/03/31 02:12:28;;;;;;;2.63;0.70;;;13.20;99.90;;;;;;4989859;28;20029;-88
2023/03/31 02:14:57;;;;;;;2.97;0.82;;;13.20;99.90;;;;;;4998018;28;20053;-88
2023/03/31 02:17:29;;;;;;;4.28;0.93;;;13.20;99.90;;;;;;5001844;28;20378;-88
2023/03/31 02:19:58;;;;;;;3.47;0.80;;;13.20;99.90;;;;;;5022081;28;20021;-87
2023/03/31 02:22:26;;;;;;;3.47;0.80;;;13.20;99.90;;;;;;4987208;28;20026;-88
2023/03/31 02:24:53;;;;;;;1.98;0.65;;;13.20;99.90;;;;;;5019067;28;20037;-90
2023/03/31 02:27:32;;;;;;;2.22;0.90;;;13.20;99.90;;;;;;5002346;28;20029;-88
2023/03/31 02:29:58;;;;;;;2.85;0.80;;;13.20;99.90;;;;;;5004396;28;20041;-87
2023/03/31 02:32:31;;;;;;;1.83;0.70;;;13.20;99.90;;;;;;5016901;28;20139;-88
2023/03/31 02:34:58;;;;;;;3.40;1.10;;;13.20;99.90;;;;;;5023659;28;20490;-87
2023/03/31 02:37:25;;;;;;;2.40;0.80;;;13.20;99.90;;;;;;4984448;28;20018;-90
2023/03/31 02:39:54;;;;;;;2.95;0.85;;;13.20;99.90;;;;;;5008253;28;20118;-88
2023/03/31 02:42:20;;;;;;;2.30;0.80;;;13.20;99.90;;;;;;5015239;28;20055;-88
2023/03/31 02:44:46;;;;;;;3.80;0.90;;;13.10;99.90;;;;;;4998097;28;21761;-87
2023/03/31 02:47:16;;;;;;;2.35;0.80;;;13.10;99.90;;;;;;5012256;28;20025;-88
2023/03/31 02:49:50;;;;;;;2.40;0.80;;;13.10;99.90;;;;;;5004431;28;20115;-87
2023/03/31 02:52:44;;;;;;;3.20;0.60;;;13.10;99.90;;;;;;4982851;28;20040;-88
2023/03/31 02:55:24;;;;;;;3.05;0.80;;;13.10;99.90;;;;;;5004276;28;20017;-88
2023/03/31 02:58:02;;;;;;;1.80;0.60;;;13.00;99.90;;;;;;5009083;28;20030;-88
2023/03/31 03:00:34;;;;;;;2.35;0.60;;;13.00;99.90;;;;;;4987301;28;20304;-87
2023/03/31 03:03:31;;;;;;;1.70;0.70;;;13.00;99.90;;;;;;4994289;28;20541;-87
2023/03/31 03:06:36;;;;;;;2.97;0.70;;;13.00;99.90;;;;;;4992710;28;20079;-86
2023/03/31 03:09:21;;;;;;;2.42;0.60;;;12.90;99.90;;;;;;4990575;28;20067;-88
2023/03/31 03:12:08;;;;;;;1.40;0.50;;;12.90;99.90;;;;;;5007355;28;20029;-89
2023/03/31 03:14:40;;;;;;;1.50;0.60;;;12.90;99.90;;;;;;4992152;28;20565;-87
2023/03/31 03:17:16;;;;;;;2.28;0.70;;;12.80;99.90;;;;;;5001978;28;20313;-87
2023/03/31 03:19:42;;;;;;;3.20;0.80;;;12.80;99.90;;;;;;5021463;28;20222;-87
2023/03/31 03:22:08;;;;;;;1.98;0.70;;;12.80;99.90;;;;;;5002962;28;20087;-87
2023/03/31 03:24:33;;;;;;;1.30;0.53;;;12.80;99.90;;;;;;5003608;28;20029;-87
2023/03/31 03:27:00;;;;;;;2.15;0.70;;;12.80;99.90;;;;;;5014489;28;20441;-87
2023/03/31 03:29:26;;;;;;;1.33;0.60;;;12.80;99.90;;;;;;5015409;28;20811;-88
2023/03/31 03:31:52;;;;;;;1.75;0.60;;;12.80;99.90;;;;;;4993725;28;20386;-86
2023/03/31 03:34:19;;;;;;;1.33;0.60;;;12.80;99.90;;;;;;4996960;28;20036;-87
2023/03/31 03:36:45;;;;;;;2.78;0.60;;;12.80;99.90;;;;;;5002663;28;20056;-87
2023/03/31 03:39:12;;;;;;;2.63;0.60;;;12.80;99.90;;;;;;5013986;28;20090;-87
2023/03/31 03:41:38;;;;;;;3.10;0.60;;;12.80;99.90;;;;;;4989255;28;20438;-86
2023/03/31 03:44:04;;;;;;;2.00;0.80;;;12.80;99.90;;;;;;5016627;28;20038;-86
2023/03/31 03:46:30;;;;;;;1.45;0.60;;;12.80;99.90;;;;;;5001208;28;20032;-87
2023/03/31 03:48:56;;;;;;;1.35;0.68;;;12.80;99.90;;;;;;4999093;28;20044;-87
2023/03/31 03:51:24;;;;;;;2.37;0.70;;;12.80;99.90;;;;;;5004840;28;20025;-87
2023/03/31 03:53:50;;;;;;;3.22;0.60;;;12.80;99.90;;;;;;4994563;28;20018;-87
2023/03/31 03:56:16;;;;;;;2.08;0.63;;;12.80;99.90;;;;;;4996885;28;20017;-89
2023/03/31 03:58:41;;;;;;;4.00;0.80;;;12.80;99.90;;;;;;5004676;28;20026;-87
2023/03/31 04:01:07;;;;;;;3.90;0.80;;;12.80;99.90;;;;;;4998956;28;20132;-88
2023/03/31 04:03:33;;;;;;;4.15;0.80;;;12.80;99.90;;;;;;5014397;28;20029;-87
2023/03/31 04:05:58;;;;;;;2.87;1.00;;;12.70;99.90;;;;;;5007118;28;20507;-88
2023/03/31 04:08:24;;;;;;;2.92;0.80;;;12.70;99.90;;;;;;5007185;28;20021;-91
2023/03/31 04:10:50;;;;;;;3.60;0.80;;;12.70;99.90;;;;;;4978465;28;20030;-89
2023/03/31 04:13:19;;;;;;;1.63;0.60;;;12.60;99.90;;;;;;5005820;28;20029;-87
2023/03/31 04:15:45;;;;;;;3.97;1.00;;;12.60;99.90;;;;;;5003174;28;20048;-88
2023/03/31 04:18:32;;;;;;;3.35;0.77;;;12.60;99.90;;;;;;5000462;28;20366;-89
2023/03/31 04:21:03;;;;;;;1.93;0.70;;;12.60;99.90;;;;;;5004518;28;20563;-87
2023/03/31 04:23:31;;;;;;;2.55;0.68;;;12.50;99.90;;;;;;5022734;28;20034;-87
2023/03/31 04:25:57;;;;;;;1.95;0.80;;;12.50;99.90;;;;;;4998042;28;20790;-87
2023/03/31 04:28:22;;;;;;;3.50;0.80;;;12.60;99.90;;;;;;5000239;28;20041;-87
2023/03/31 04:30:48;;;;;;;1.00;0.50;;;12.50;99.90;;;;;;5019006;28;20530;-91
2023/03/31 04:33:17;;;;;;;1.88;0.90;;;12.50;99.90;;;;;;4995973;28;20032;-89
2023/03/31 04:35:49;;;;;;;1.48;0.60;;;12.50;99.90;;;;;;5002734;28;20556;-89
2023/03/31 04:38:21;;;;;;;1.03;0.60;;;12.50;99.90;;;;;;5002780;28;20025;-87
2023/03/31 04:40:49;;;;;;;1.77;0.52;;;12.40;99.90;;;;;;4992232;28;20036;-89
2023/03/31 04:43:16;;;;;;;2.00;0.60;;;12.40;99.90;;;;;;5018651;28;20164;-90
2023/03/31 04:45:41;;;;;;;1.33;0.60;;;12.40;99.90;;;;;;5000598;28;20041;-87
2023/03/31 04:48:08;;;;;;;1.33;0.40;;;12.40;99.90;;;;;;4994545;28;20037;-89
2023/03/31 04:50:34;;;;;;;1.10;0.50;;;12.40;99.90;;;;;;4993587;28;20627;-89
2023/03/31 04:53:01;;;;;;;1.08;0.40;;;12.30;99.90;;;;;;4992799;28;20072;-89
2023/03/31 04:55:27;;;;;;;0.68;0.50;;;12.30;99.90;;;;;;5001429;28;20025;-89
2023/03/31 04:57:52;;;;;;;0.40;0.40;;;12.30;99.90;;;;;;4990341;28;20097;-90
2023/03/31 05:00:19;;;;;;;1.15;0.40;;;12.20;99.90;;;;;;4999997;28;20082;-90
2023/03/31 05:02:44;;;;;;;0.70;0.40;;;12.20;99.90;;;;;;4984363;28;20022;-90
2023/03/31 05:05:11;;;;;;;0.50;0.30;;;12.20;99.90;;;;;;4989493;28;20036;-90
2023/03/31 05:07:37;;;;;;;0.70;0.30;;;12.10;99.90;;;;;;4965824;28;20227;-89
2023/03/31 05:10:03;;;;;;;1.33;0.47;;;12.10;99.90;;;;;;5001466;28;20017;-91
2023/03/31 05:12:34;;;;;;;2.38;0.40;;;12.10;99.90;;;;;;5003658;28;20043;-91
2023/03/31 05:15:00;;;;;;;1.07;0.70;;;12.10;99.90;;;;;;5005322;28;20099;-87
2023/03/31 05:17:26;;;;;;;1.45;0.50;;;12.10;99.90;;;;;;4993130;28;20032;-88
2023/03/31 05:19:52;;;;;;;1.05;0.60;;;12.10;99.90;;;;;;5009184;28;20487;-91
2023/03/31 05:22:19;;;;;;;2.50;0.70;;;12.10;99.90;;;;;;5000061;28;20041;-89
2023/03/31 05:24:46;;;;;;;1.63;0.57;;;12.10;99.90;;;;;;4989138;28;20025;-90
2023/03/31 05:27:12;;;;;;;2.88;1.08;;;12.10;99.90;;;;;;4996397;28;20538;-93
2023/03/31 05:29:38;;;;;;;4.47;0.85;;;12.10;99.90;;;;;;4973867;28;20042;-88
2023/03/31 05:32:04;;;;;;;3.80;1.13;;;12.10;99.90;;;;;;5014043;28;20084;-90
2023/03/31 05:34:30;;;;;;;3.03;1.00;;;12.10;99.90;;;;;;5010359;28;20276;-90
2023/03/31 05:36:56;;;;;;;4.18;1.55;;;12.20;99.90;;;;;;4985882;28;20049;-91
2023/03/31 05:39:22;;;;;;;6.00;1.40;;;12.20;99.90;;;;;;4992131;28;20026;-87
2023/03/31 05:41:48;;;;;;;3.00;0.93;;;12.20;99.90;;;;;;4994555;28;20581;-89
2023/03/31 05:44:14;;;;;;;5.53;1.20;;;12.20;99.90;;;;;;4984575;28;20013;-87
2023/03/31 05:46:40;;;;;;;3.95;1.35;;;12.30;99.90;;;;;;5011491;28;20034;-88
2023/03/31 05:49:06;;;;;;;16.40;1.67;;;12.40;99.90;;;;;;4996693;28;20032;-89
2023/03/31 05:51:31;;;;;;;7.13;1.30;;;12.40;99.90;;;;;;5005764;28;20037;-90
2023/03/31 05:53:57;;;;;;;8.13;1.30;;;12.40;99.90;;;;;;4992212;28;20052;-91
2023/03/31 05:56:23;;;;;;;5.33;1.53;;;12.40;99.90;;;;;;5012856;28;20057;-89
2023/03/31 05:58:48;;;;;;;6.18;1.40;;;12.40;99.90;;;;;;4994546;28;20277;-90
2023/03/31 06:01:20;;;;;;;6.23;1.40;;;12.50;99.90;;;;;;4987774;28;20030;-89
2023/03/31 06:03:45;;;;;;;4.18;1.20;;;12.50;99.90;;;;;;5010341;28;20025;-88
2023/03/31 06:06:13;;;;;;;3.65;1.13;;;12.60;99.90;;;;;;5009449;28;20447;-91
2023/03/31 06:08:39;;;;;;;4.05;1.30;;;12.60;99.90;;;;;;4979082;28;20026;-89
2023/03/31 06:11:07;;;;;;;4.10;1.00;;;12.60;99.90;;;;;;4986508;28;20365;-91
2023/03/31 06:13:33;;;;;;;5.80;1.30;;;12.60;99.90;;;;;;4995637;28;20022;-89
2023/03/31 06:16:00;;;;;;;3.05;1.00;;;12.60;99.90;;;;;;5000128;28;20483;-87
2023/03/31 06:18:31;;;;;;;7.55;1.38;;;12.60;99.90;;;;;;5015523;28;20374;-89
2023/03/31 06:20:57;;;;;;;4.88;1.38;;;12.70;99.90;;;;;;5007726;28;20681;-89
2023/03/31 06:23:24;;;;;;;6.27;1.40;;;12.70;99.90;;;;;;4991024;28;20026;-92
2023/03/31 06:25:51;;;;;;;5.80;1.30;;;12.70;99.90;;;;;;4971711;28;20041;-93
2023/03/31 06:28:17;;;;;;;4.28;1.25;;;12.70;99.90;;;;;;5009430;28;20042;-90
2023/03/31 06:30:43;;;;;;;4.40;1.13;;;12.80;99.90;;;;;;5008063;28;20036;-89
2023/03/31 06:33:09;;;;;;;8.30;1.60;;;12.80;99.90;;;;;;5016134;28;20026;-89
2023/03/31 06:35:40;;;;;;;4.55;1.35;;;12.80;99.90;;;;;;4994475;28;20033;-90
2023/03/31 06:38:06;;;;;;;7.18;1.38;;;12.90;99.90;;;;;;4993213;28;20085;-91
2023/03/31 06:40:32;;;;;;;4.18;1.45;;;12.90;99.90;;;;;;4984897;28;20029;-90
2023/03/31 06:42:58;;;;;;;6.23;1.53;;;13.00;99.90;;;;;;4989090;28;20614;-93
2023/03/31 06:45:24;;;;;;;6.07;1.50;;;13.00;99.90;;;;;;4996910;28;20731;-90
2023/03/31 06:47:50;;;;;;;5.95;1.40;;;13.00;99.90;;;;;;5002943;28;20047;-90
2023/03/31 06:50:16;;;;;;;5.13;1.43;;;13.10;99.90;;;;;;5003738;28;20470;-91
2023/03/31 06:52:41;;;;;;;4.70;1.30;;;13.10;99.90;;;;;;5014668;28;20272;-90
2023/03/31 06:55:08;;;;;;;7.68;1.98;;;13.20;99.90;;;;;;4956858;28;21265;-92
2023/03/31 06:57:34;;;;;;;5.93;1.40;;;13.20;99.90;;;;;;4998808;28;20040;-91
2023/03/31 07:00:00;;;;;;;6.97;1.25;;;13.30;99.90;;;;;;5008113;28;20553;-90
2023/03/31 07:02:25;;;;;;;6.65;1.45;;;13.30;99.90;;;;;;4992671;28;20510;-91
2023/03/31 07:04:51;;;;;;;8.80;2.08;;;13.40;99.90;;;;;;4984968;28;20064;-91
2023/03/31 07:07:17;;;;;;;7.47;1.73;;;13.40;99.90;;;;;;5013510;28;20037;-88
2023/03/31 07:09:43;;;;;;;11.32;2.72;;;13.50;99.90;;;;;;4974410;28;20036;-92
2023/03/31 07:12:09;;;;;;;5.05;1.70;;;13.60;99.90;;;;;;4973371;28;20575;-91
2023/03/31 07:14:35;;;;;;;5.80;1.40;;;13.70;99.90;;;;;;5005413;28;20322;-90
2023/03/31 07:17:02;;;;;;;4.63;1.30;;;13.80;99.90;;;;;;5018051;28;20049;-92
2023/03/31 07:19:28;;;;;;;7.78;1.65;;;13.80;99.90;;;;;;4982698;28;20248;-90
2023/03/31 07:21:55;;;;;;;5.93;1.77;;;14.00;99.90;;;;;;5019734;28;20048;-92
2023/03/31 07:24:21;;;;;;;5.33;1.40;;;14.00;99.90;;;;;;4995694;28;20036;-90
2023/03/31 07:26:46;;;;;;;7.85;1.80;;;14.10;99.90;;;;;;4974665;28;20618;-92
2023/03/31 07:29:12;;;;;;;11.87;2.30;;;14.20;99.90;;;;;;5002164;28;20716;-88
2023/03/31 07:31:39;;;;;;;10.93;2.78;;;14.20;99.90;;;;;;4994356;28;20309;-91
2023/03/31 07:34:05;;;;;;;8.35;2.15;;;14.30;99.90;;;;;;4993482;28;20021;-92
2023/03/31 07:36:31;;;;;;;8.13;2.00;;;14.30;99.90;;;;;;4996948;28;20259;-92
2023/03/31 07:38:57;;;;;;;9.63;1.90;;;14.30;99.90;;;;;;5002300;28;20018;-92
2023/03/31 07:41:23;;;;;;;7.95;1.90;;;14.40;99.90;;;;;;4973384;28;21928;-90
2023/03/31 07:43:50;;;;;;;8.13;1.70;;;14.30;99.90;;;;;;5004345;28;20352;-91
2023/03/31 07:46:22;;;;;;;8.63;1.90;;;14.40;99.90;;;;;;5003449;28;20014;-91
2023/03/31 07:48:49;;;;;;;6.95;2.30;;;14.40;99.90;;;;;;5007513;28;20233;-91
2023/03/31 07:51:17;;;;;;;7.20;1.63;;;14.40;99.90;;;;;;5011422;28;20022;-91
2023/03/31 07:53:43;;;;;;;5.45;1.38;;;14.40;99.90;;;;;;5022367;28;20526;-89
2023/03/31 07:56:09;;;;;;;6.73;1.50;;;14.30;99.90;;;;;;4982798;28;20025;-91
2023/03/31 07:58:36;;;;;;;6.22;1.63;;;14.20;99.90;;;;;;4999034;28;20126;-91
2023/03/31 08:01:02;;;;;;;10.75;1.98;;;14.20;99.90;;;;;;4999892;28;20083;-91
2023/03/31 08:03:28;;;;;;;8.68;1.90;;;14.20;99.90;;;;;;5000763;28;20033;-91
2023/03/31 08:05:54;;;;;;;7.83;1.57;;;14.10;99.90;;;;;;4989465;28;20044;-92
2023/03/31 08:08:20;;;;;;;6.13;1.50;;;14.10;99.90;;;;;;4978650;28;20304;-91
2023/03/31 08:10:47;;;;;;;7.13;1.60;;;14.00;99.90;;;;;;4996670;28;20029;-93
2023/03/31 08:13:12;;;;;;;10.17;1.53;;;13.90;99.90;;;;;;4996332;28;20029;-91
2023/03/31 08:15:38;;;;;;;8.00;1.55;;;13.90;99.90;;;;;;5014270;28;20582;-92
2023/03/31 08:18:05;;;;;;;9.80;1.97;;;13.90;99.90;;;;;;5000375;28;20513;-87
2023/03/31 08:20:31;;;;;;;9.10;1.70;;;13.90;99.90;;;;;;5002320;28;20281;-90
2023/03/31 08:22:57;;;;;;;10.85;1.92;;;13.90;99.90;;;;;;5020875;28;20025;-91
2023/03/31 08:25:23;;;;;;;10.73;2.03;;;13.90;99.90;;;;;;4985901;28;20128;-90
2023/03/31 08:27:50;;;;;;;10.25;1.80;;;13.90;99.90;;;;;;4980211;28;20175;-90
2023/03/31 08:30:17;;;;;;;11.20;2.20;;;13.90;99.90;;;;;;4997934;28;20306;-89
2023/03/31 08:32:43;;;;;;;8.17;1.60;;;13.90;99.90;;;;;;5018774;28;20104;-91
2023/03/31 08:35:09;;;;;;;10.50;1.65;;;14.00;99.90;;;;;;4989581;28;20511;-87
2023/03/31 08:37:37;;;;;;;10.77;2.08;;;14.00;99.90;;;;;;4999009;28;21269;-89
2023/03/31 08:40:04;;;;;;;9.38;1.80;;;14.10;99.90;;;;;;5004688;28;20118;-91
2023/03/31 08:42:48;;;;;;;9.30;1.80;;;14.10;99.90;;;;;;5003247;28;20025;-89
2023/03/31 08:45:23;;;;;;;7.40;1.60;;;14.10;99.90;;;;;;5005573;28;20516;-91
2023/03/31 08:47:54;;;;;;;8.50;1.80;;;14.20;99.90;;;;;;5001455;28;20029;-88
2023/03/31 08:50:25;;;;;;;4.95;1.10;;;14.30;99.90;;;;;;5015323;28;20018;-89
2023/03/31 08:53:11;;;;;;;6.75;1.35;;;14.30;99.90;;;;;;4975715;28;20127;-91
2023/03/31 08:55:50;;;;;;;10.23;1.90;;;14.30;99.90;;;;;;5002446;28;20025;-88
2023/03/31 08:58:45;;;;;;;8.13;1.80;;;14.40;99.90;;;;;;5000227;28;20120;-91
2023/03/31 09:01:18;;;;;;;8.30;1.65;;;14.40;99.90;;;;;;5021355;28;20036;-89
2023/03/31 09:04:08;;;;;;;6.30;1.25;;;14.50;99.90;;;;;;4993625;28;20386;-90
2023/03/31 09:06:38;;;;;;;6.95;1.45;;;14.60;99.90;;;;;;5019609;28;20482;-89
2023/03/31 09:09:09;;;;;;;5.32;1.20;;;14.70;99.90;;;;;;5000791;28;20234;-91
2023/03/31 09:11:53;;;;;;;8.33;1.77;;;14.80;99.90;;;;;;5020305;28;20024;-88
2023/03/31 09:14:45;;;;;;;8.48;1.52;;;14.80;99.90;;;;;;4998990;28;20025;-90
2023/03/31 09:17:33;;;;;;;8.18;1.83;;;14.80;99.90;;;;;;5000435;28;20526;-90
2023/03/31 09:20:23;;;;;;;6.95;1.30;;;14.80;99.90;;;;;;5001027;28;20037;-91
2023/03/31 09:23:09;;;;;;;7.95;1.75;;;14.90;99.90;;;;;;5009924;28;20427;-88
2023/03/31 09:25:40;;;;;;;6.43;1.80;;;14.90;99.90;;;;;;5010362;28;20121;-89
2023/03/31 09:28:13;;;;;;;9.88;1.83;;;15.00;99.90;;;;;;4993431;28;20506;-89
2023/03/31 09:30:41;;;;;;;7.75;1.60;;;15.00;99.90;;;;;;5008030;28;20361;-91
2023/03/31 09:33:30;;;;;;;7.13;1.70;;;15.10;99.90;;;;;;5004147;28;20018;-90
2023/03/31 09:36:01;;;;;;;8.10;1.80;;;15.20;99.90;;;;;;4998023;28;20057;-89
2023/03/31 09:38:28;;;;;;;6.20;1.60;;;15.20;99.90;;;;;;4980052;28;20861;-92
2023/03/31 09:41:02;;;;;;;5.38;1.30;;;15.30;99.90;;;;;;4998637;28;20690;-89
2023/03/31 09:43:30;;;;;;;6.95;1.80;;;15.40;99.90;;;;;;4967773;28;20022;-92
2023/03/31 09:45:56;;;;;;;7.05;1.52;;;15.50;99.90;;;;;;4981861;28;20317;-88
2023/03/31 09:48:25;;;;;;;5.47;1.30;;;15.60;99.90;;;;;;5002544;28;20079;-90
2023/03/31 09:51:05;;;;;;;8.43;1.70;;;15.60;99.90;;;;;;4991183;28;20223;-89
2023/03/31 09:53:52;;;;;;;10.27;1.88;;;15.60;99.90;;;;;;4990115;28;20860;-87
2023/03/31 09:56:45;;;;;;;9.23;1.85;;;15.70;99.90;;;;;;4980212;28;20494;-89
2023/03/31 09:59:33;;;;;;;6.95;1.63;;;15.60;99.90;;;;;;5014416;28;20033;-91
2023/03/31 10:02:02;;;;;;;7.07;1.92;;;15.60;99.90;;;;;;4980187;28;20721;-87
2023/03/31 10:04:32;;;;;;;9.30;1.80;;;15.60;99.90;;;;;;4985100;28;20072;-89
2023/03/31 10:06:59;;;;;;;9.13;1.63;;;15.60;99.90;;;;;;4979345;28;20342;-89
2023/03/31 10:09:37;;;;;;;7.63;1.67;;;15.60;99.90;;;;;;4981767;28;20048;-89
2023/03/31 10:12:15;;;;;;;7.78;2.10;;;15.50;99.90;;;;;;4999278;28;20018;-90
2023/03/31 10:14:47;;;;;;;11.27;2.33;;;15.40;99.90;;;;;;4981144;28;20057;-91
2023/03/31 10:17:16;;;;;;;10.97;1.70;;;15.30;99.90;;;;;;4969581;28;20565;-88
2023/03/31 10:19:57;;;;;;;7.20;1.50;;;15.20;99.90;;;;;;5002476;28;20474;-87
2023/03/31 10:22:27;;;;;;;10.50;1.90;;;15.20;99.90;;;;;;4979299;28;20210;-88
2023/03/31 10:25:03;;;;;;;11.63;2.30;;;15.10;99.90;;;;;;4989193;28;20046;-87
2023/03/31 10:27:30;;;;;;;10.70;1.80;;;15.10;99.90;;;;;;4979935;28;20499;-90
2023/03/31 10:30:01;;;;;;;13.53;2.40;;;15.00;99.90;;;;;;5020266;28;20033;-90
2023/03/31 10:32:33;;;;;;;10.25;1.75;;;14.90;99.90;;;;;;5017319;28;20064;-89
2023/03/31 10:35:13;;;;;;;8.93;1.73;;;14.80;99.90;;;;;;5019919;28;20151;-88
2023/03/31 10:37:39;;;;;;;13.93;3.20;;;14.80;99.90;;;;;;5000512;28;20153;-91
2023/03/31 10:40:15;;;;;;;10.05;2.15;;;14.70;99.90;;;;;;4988007;28;20071;-90
2023/03/31 10:42:58;;;;;;;11.03;2.47;;;14.70;99.90;;;;;;5004052;28;20322;-92
2023/03/31 10:45:26;;;;;;;8.43;2.10;;;14.70;99.90;;;;;;5002404;28;20035;-91
2023/03/31 10:47:54;;;;;;;9.23;2.10;;;14.60;99.90;;;;;;4998450;28;20036;-91
2023/03/31 10:50:30;;;;;;;10.55;2.10;;;14.60;99.90;;;;;;5023995;28;20032;-88
2023/03/31 10:53:20;;;;;;;8.68;1.63;;;14.60;99.90;;;;;;4982307;28;20029;-89
2023/03/31 10:55:55;;;;;;;6.53;1.60;;;14.60;99.90;;;;;;4997098;28;20778;-89
2023/03/31 10:58:31;;;;;;;8.02;1.80;;;14.60;99.90;;;;;;5015709;28;20063;-91
2023/03/31 11:01:24;;;;;;;9.02;2.00;;;14.70;99.90;;;;;;4997298;28;20239;-88
2023/03/31 11:04:18;;;;;;;7.45;1.50;;;14.70;99.90;;;;;;4968910;28;20152;-86
2023/03/31 11:07:02;;;;;;;9.77;2.25;;;14.70;99.90;;;;;;5002021;28;20037;-91
2023/03/31 11:09:40;;;;;;;6.27;2.20;;;14.80;99.90;;;;;;5001775;28;20044;-91
2023/03/31 11:12:09;;;;;;;9.10;1.65;;;14.80;99.90;;;;;;4986739;28;20067;-86
2023/03/31 11:14:43;;;;;;;12.55;1.88;;;14.80;99.90;;;;;;5032256;28;20024;-89
2023/03/31 11:17:32;;;;;;;8.23;1.70;;;14.80;99.90;;;;;;5001504;28;20714;-90
2023/03/31 11:20:11;;;;;;;7.60;1.88;;;14.90;99.90;;;;;;4979752;28;20306;-90
2023/03/31 11:22:51;;;;;;;6.47;1.50;;;14.90;99.90;;;;;;5036403;28;20041;-88
2023/03/31 11:25:46;;;;;;;6.47;1.70;;;15.00;99.90;;;;;;5004383;28;20067;-90
2023/03/31 11:28:27;;;;;;;9.63;1.90;;;15.00;99.90;;;;;;4991561;28;20251;-87
2023/03/31 11:31:40;;;;;;;5.70;1.50;;;15.00;99.90;;;;;;5000740;28;20037;-88
2023/03/31 11:34:31;;;;;;;6.97;1.42;;;15.00;99.90;;;;;;4950640;28;20419;-91
2023/03/31 11:36:57;;;;;;;9.33;2.07;;;15.10;99.90;;;;;;4998093;28;20481;-91
2023/03/31 11:39:31;;;;;;;7.60;1.80;;;15.10;99.90;;;;;;5003484;28;20029;-91
2023/03/31 11:42:06;;;;;;;9.95;2.10;;;15.30;99.90;;;;;;5022233;28;20643;-90
2023/03/31 11:44:45;;;;;;;8.27;1.90;;;15.40;99.90;;;;;;5006802;28;20313;-89
2023/03/31 11:47:19;;;;;;;6.70;1.60;;;15.50;99.90;;;;;;5000908;28;20151;-88
2023/03/31 11:49:56;;;;;;;6.17;1.53;;;15.50;99.90;;;;;;4979649;28;20257;-89
2023/03/31 11:52:33;;;;;;;9.07;1.92;;;15.70;99.90;;;;;;4998957;28;20024;-85
2023/03/31 11:55:06;;;;;;;7.65;1.40;;;15.80;99.90;;;;;;5000678;28;20170;-86
2023/03/31 11:57:52;;;;;;;6.78;1.60;;;15.90;99.90;;;;;;5014720;28;20275;-90
2023/03/31 12:00:24;;;;;;;7.20;1.67;;;16.00;99.90;;;;;;5001959;28;20803;-88
2023/03/31 12:02:56;;;;;;;5.60;1.60;;;16.20;99.90;;;;;;4991075;28;21021;-90
2023/03/31 12:05:25;;;;;;;8.50;2.10;;;16.20;99.90;;;;;;4985947;28;20025;-85
2023/03/31 12:08:07;;;;;;;8.20;1.90;;;16.30;99.90;;;;;;4987115;28;20187;-86
2023/03/31 12:10:40;;;;;;;6.80;1.58;;;16.30;99.90;;;;;;5010739;28;20030;-91
2023/03/31 12:13:44;;;;;;;5.20;1.30;;;16.30;99.90;;;;;;5008618;28;20044;-90
2023/03/31 12:16:17;;;;;;;6.87;1.53;;;16.30;99.90;;;;;;5001762;28;20036;-91
2023/03/31 12:19:26;;;;;;;5.75;1.40;;;16.30;99.90;;;;;;4987342;28;20036;-88
2023/03/31 12:22:05;;;;;;;6.45;1.40;;;16.20;98.90;;;;;;5003946;28;20700;-88
2023/03/31 12:24:33;;;;;;;5.90;1.10;;;16.00;99.90;;;;;;5018839;28;20091;-91
2023/03/31 12:27:13;;;;;;;4.63;1.27;;;15.90;99.90;;;;;;5007480;28;20433;-87
2023/03/31 12:29:45;;;;;;;6.03;1.30;;;15.80;99.90;;;;;;4999599;28;20055;-89
2023/03/31 12:32:17;;;;;;;4.85;1.20;;;15.60;99.90;;;;;;5016827;28;20136;-88
2023/03/31 12:34:55;;;;;;;4.80;1.40;;;15.50;99.90;;;;;;4988454;28;20235;-90
2023/03/31 12:37:31;;;;;;;6.88;1.30;;;15.30;99.90;;;;;;5002028;28;20041;-88
2023/03/31 12:40:25;;;;;;;5.40;1.50;;;15.20;99.90;;;;;;5020394;28;20128;-86
2023/03/31 12:43:03;;;;;;;6.57;1.43;;;15.00;99.90;;;;;;4992149;28;20509;-91
2023/03/31 12:45:38;;;;;;;9.05;1.60;;;14.80;99.90;;;;;;5014645;28;20029;-90
2023/03/31 12:48:35;;;;;;;4.55;1.10;;;14.80;99.90;;;;;;5019442;28;20079;-88
2023/03/31 12:51:06;;;;;;;4.32;1.40;;;14.70;99.90;;;;;;4979319;28;20021;-87
2023/03/31 12:53:50;;;;;;;5.95;1.27;;;14.60;99.90;;;;;;5002522;28;20502;-90
2023/03/31 12:56:20;;;;;;;5.60;1.00;;;14.50;99.90;;;;;;5005213;28;20079;-89
2023/03/31 12:58:46;;;;;;;3.92;1.05;;;14.40;99.90;;;;;;4997850;28;20033;-91
2023/03/31 13:01:19;;;;;;;4.38;1.20;;;14.40;99.90;;;;;;5018625;28;20059;-92
2023/03/31 13:04:08;;;;;;;6.10;1.20;;;14.40;99.90;;;;;;5018784;28;20025;-89
2023/03/31 13:06:37;;;;;;;3.63;0.85;;;14.30;99.90;;;;;;5006741;28;20026;-89
2023/03/31 13:09:26;;;;;;;4.47;0.97;;;14.30;99.90;;;;;;5040294;28;20253;-91
2023/03/31 13:11:52;;;;;;;4.35;0.90;;;14.30;99.90;;;;;;5001577;28;20495;-88